createdAt,value
2022-11-01T00:01:54.829Z,13.35
2022-11-01T00:04:22.820Z,13.35
2022-11-01T00:06:51.444Z,13.30
2022-11-01T00:09:19.637Z,12.73
2022-11-01T00:11:49.304Z,13.65
2022-11-01T00:14:19.549Z,14.07
2022-11-01T00:16:47.440Z,13.73
2022-11-01T00:19:15.598Z,12.75
2022-11-01T00:21:43.784Z,13.32
2022-11-01T00:24:11.848Z,13.20
2022-11-01T00:26:39.918Z,13.10
2022-11-01T00:29:09.199Z,12.38
2022-11-01T00:31:38.177Z,14.60
2022-11-01T00:34:06.861Z,13.38
2022-11-01T00:36:34.878Z,12.90
2022-11-01T00:39:03.359Z,12.95
2022-11-01T00:41:31.363Z,13.88
2022-11-01T00:44:02.198Z,13.07
2022-11-01T00:46:31.737Z,12.30
2022-11-01T00:48:59.861Z,13.02
2022-11-01T00:51:28.827Z,11.73
2022-11-01T00:53:56.910Z,11.60
2022-11-01T00:56:24.780Z,12.38
2022-11-01T00:58:52.839Z,11.15
2022-11-01T01:01:20.890Z,12.00
2022-11-01T01:03:50.339Z,11.20
2022-11-01T01:06:18.243Z,12.68
2022-11-01T01:08:46.367Z,12.52
2022-11-01T01:11:16.280Z,12.38
2022-11-01T01:13:46.786Z,11.23
2022-11-01T01:16:14.866Z,11.50
2022-11-01T01:18:42.759Z,12.45
2022-11-01T01:21:13.983Z,11.43
2022-11-01T01:23:43.398Z,11.27
2022-11-01T01:26:12.780Z,12.90
2022-11-01T01:28:43.669Z,11.27
2022-11-01T01:31:14.103Z,10.57
2022-11-01T01:33:42.726Z,11.48
2022-11-01T01:36:12.476Z,10.35
2022-11-01T01:38:40.403Z,11.63
2022-11-01T01:41:25.819Z,11.77
2022-11-01T01:43:54.338Z,11.57
2022-11-01T01:46:22.729Z,11.07
2022-11-01T01:48:55.937Z,10.75
2022-11-01T01:51:28.423Z,10.40
2022-11-01T01:53:58.217Z,10.45
2022-11-01T01:56:32.188Z,10.02
2022-11-01T01:59:04.246Z,9.82
2022-11-01T02:01:33.532Z,10.48
2022-11-01T02:04:02.126Z,10.50
2022-11-01T02:06:33.736Z,10.50
2022-11-01T02:09:04.463Z,10.95
2022-11-01T02:11:32.337Z,10.38
2022-11-01T02:14:00.536Z,9.45
2022-11-01T02:16:51.643Z,9.35
2022-11-01T02:19:43.151Z,9.07
2022-11-01T02:22:18.277Z,9.25
2022-11-01T02:25:03.385Z,9.93
2022-11-01T02:27:42.596Z,9.50
2022-11-01T02:30:15.770Z,10.10
2022-11-01T02:33:05.678Z,10.05
2022-11-01T02:35:48.899Z,8.65
2022-11-01T02:38:24.998Z,10.23
2022-11-01T02:41:01.001Z,8.95
2022-11-01T02:43:43.525Z,9.77
2022-11-01T02:46:29.681Z,8.73
2022-11-01T02:48:59.224Z,9.48
2022-11-01T02:51:29.144Z,8.75
2022-11-01T02:53:57.064Z,8.70
2022-11-01T02:56:24.992Z,8.25
2022-11-01T02:58:53.810Z,9.25
2022-11-01T03:01:26.115Z,8.65
2022-11-01T03:03:57.653Z,7.80
2022-11-01T03:06:35.051Z,7.88
2022-11-01T03:09:07.091Z,8.38
2022-11-01T03:11:43.598Z,7.47
2022-11-01T03:14:19.784Z,7.32
2022-11-01T03:16:55.499Z,7.75
2022-11-01T03:19:33.836Z,7.63
2022-11-01T03:22:08.146Z,8.07
2022-11-01T03:24:45.103Z,7.60
2022-11-01T03:27:18.046Z,8.27
2022-11-01T03:29:49.508Z,7.65
2022-11-01T03:32:20.863Z,6.93
2022-11-01T03:34:49.073Z,6.70
2022-11-01T03:37:20.300Z,6.80
2022-11-01T03:39:52.967Z,7.00
2022-11-01T03:42:24.870Z,7.30
2022-11-01T03:44:59.113Z,7.10
2022-11-01T03:47:28.190Z,7.10
2022-11-01T03:50:16.233Z,7.00
2022-11-01T03:52:46.203Z,6.75
2022-11-01T03:55:20.773Z,7.43
2022-11-01T03:57:50.457Z,7.82
2022-11-01T04:00:21.010Z,6.32
2022-11-01T04:02:49.650Z,6.65
2022-11-01T04:05:18.086Z,7.20
2022-11-01T04:07:47.911Z,6.88
2022-11-01T04:10:16.741Z,7.55
2022-11-01T04:12:46.546Z,6.65
2022-11-01T04:15:32.660Z,6.80
2022-11-01T04:18:22.740Z,6.82
2022-11-01T04:20:51.270Z,6.18
2022-11-01T04:23:21.079Z,6.15
2022-11-01T04:25:48.983Z,6.70
2022-11-01T04:28:17.383Z,6.80
2022-11-01T04:30:45.377Z,6.35
2022-11-01T04:33:13.223Z,6.28
2022-11-01T04:35:42.479Z,5.53
2022-11-01T04:38:11.594Z,5.40
2022-11-01T04:40:41.039Z,6.38
2022-11-01T04:43:09.209Z,5.70
2022-11-01T04:45:37.148Z,5.93
2022-11-01T04:48:07.608Z,5.63
2022-11-01T04:50:36.695Z,5.13
2022-11-01T04:53:05.086Z,5.47
2022-11-01T04:55:33.253Z,5.90
2022-11-01T04:58:03.136Z,5.40
2022-11-01T05:00:32.091Z,6.38
2022-11-01T05:03:05.199Z,5.18
2022-11-01T05:05:33.798Z,4.78
2022-11-01T05:08:02.925Z,5.57
2022-11-01T05:10:31.887Z,5.18
2022-11-01T05:13:00.643Z,5.22
2022-11-01T05:15:30.409Z,4.78
2022-11-01T05:17:58.529Z,5.55
2022-11-01T05:20:26.561Z,4.30
2022-11-01T05:22:59.266Z,4.72
2022-11-01T05:25:27.578Z,4.35
2022-11-01T05:28:01.152Z,4.53
2022-11-01T05:30:30.782Z,4.43
2022-11-01T05:33:00.348Z,4.65
2022-11-01T05:35:30.020Z,4.13
2022-11-01T05:37:58.308Z,4.40
2022-11-01T05:40:26.643Z,4.00
2022-11-01T05:42:54.631Z,4.32
2022-11-01T05:45:22.799Z,4.20
2022-11-01T05:47:52.147Z,4.30
2022-11-01T05:50:20.021Z,3.38
2022-11-01T05:52:48.465Z,3.75
2022-11-01T05:55:16.584Z,3.17
2022-11-01T05:57:44.506Z,2.97
2022-11-01T06:00:13.635Z,2.75
2022-11-01T06:02:41.778Z,2.70
2022-11-01T06:05:11.441Z,2.10
2022-11-01T06:07:39.289Z,2.17
2022-11-01T06:10:08.371Z,1.83
2022-11-01T06:12:36.378Z,1.98
2022-11-01T06:15:04.896Z,1.40
2022-11-01T06:17:32.794Z,1.55
2022-11-01T06:20:00.714Z,1.38
2022-11-01T06:22:29.900Z,1.40
2022-11-01T06:24:57.791Z,1.42
2022-11-01T06:27:25.649Z,1.00
2022-11-01T06:29:53.512Z,1.33
2022-11-01T06:32:21.392Z,1.88
2022-11-01T06:34:49.353Z,1.05
2022-11-01T06:37:17.392Z,0.98
2022-11-01T06:39:46.963Z,1.33
2022-11-01T06:42:14.930Z,1.13
2022-11-01T06:44:42.911Z,1.58
2022-11-01T06:47:12.833Z,0.98
2022-11-01T06:49:40.808Z,1.13
2022-11-01T06:52:09.713Z,1.20
2022-11-01T06:54:37.676Z,1.52
2022-11-01T06:57:07.035Z,1.30
2022-11-01T06:59:35.014Z,1.23
2022-11-01T07:02:03.037Z,1.35
2022-11-01T07:04:31.909Z,1.70
2022-11-01T07:06:59.897Z,1.30
2022-11-01T07:09:28.174Z,1.35
2022-11-01T07:11:56.128Z,1.92
2022-11-01T07:14:25.395Z,1.48
2022-11-01T07:16:53.235Z,1.80
2022-11-01T07:19:22.485Z,1.73
2022-11-01T07:21:50.752Z,1.60
2022-11-01T07:24:18.866Z,2.08
2022-11-01T07:26:46.987Z,1.60
2022-11-01T07:29:14.988Z,1.63
2022-11-01T07:31:44.329Z,1.75
2022-11-01T07:34:12.323Z,1.63
2022-11-01T07:36:40.804Z,2.05
2022-11-01T07:39:08.811Z,1.30
2022-11-01T07:41:36.673Z,2.42
2022-11-01T07:44:04.895Z,2.03
2022-11-01T07:46:32.835Z,2.65
2022-11-01T07:49:02.133Z,3.17
2022-11-01T07:51:30.487Z,2.20
2022-11-01T07:53:58.299Z,3.00
2022-11-01T07:56:26.304Z,3.67
2022-11-01T07:58:54.153Z,2.25
2022-11-01T08:01:22.214Z,1.80
2022-11-01T08:03:50.390Z,1.95
2022-11-01T08:06:19.699Z,1.73
2022-11-01T08:08:47.539Z,2.30
2022-11-01T08:11:15.494Z,1.67
2022-11-01T08:13:43.394Z,2.80
2022-11-01T08:16:11.325Z,2.92
2022-11-01T08:18:39.295Z,3.17
2022-11-01T08:21:07.303Z,2.35
2022-11-01T08:23:36.818Z,2.70
2022-11-01T08:26:06.304Z,2.72
2022-11-01T08:28:34.192Z,2.60
2022-11-01T08:31:07.070Z,2.47
2022-11-01T08:33:34.990Z,2.60
2022-11-01T08:36:03.134Z,2.72
2022-11-01T08:38:30.993Z,2.90
2022-11-01T08:41:01.019Z,2.83
2022-11-01T08:43:28.979Z,2.45
2022-11-01T08:45:59.444Z,2.53
2022-11-01T08:48:27.327Z,3.50
2022-11-01T08:50:55.223Z,2.88
2022-11-01T08:53:24.897Z,2.60
2022-11-01T08:55:55.744Z,3.22
2022-11-01T08:58:25.105Z,3.35
2022-11-01T09:00:53.087Z,3.13
2022-11-01T09:03:21.013Z,2.88
2022-11-01T09:05:49.096Z,2.80
2022-11-01T09:08:17.097Z,2.63
2022-11-01T09:10:45.067Z,3.80
2022-11-01T09:13:12.999Z,2.83
2022-11-01T09:15:42.348Z,4.53
2022-11-01T09:18:10.535Z,3.35
2022-11-01T09:20:38.774Z,3.10
2022-11-01T09:23:06.846Z,3.47
2022-11-01T09:25:34.807Z,3.40
2022-11-01T09:28:02.729Z,3.58
2022-11-01T09:30:31.013Z,4.18
2022-11-01T09:33:05.708Z,4.65
2022-11-01T09:35:33.897Z,3.65
2022-11-01T09:38:03.871Z,4.10
2022-11-01T09:40:40.929Z,3.30
2022-11-01T09:43:12.384Z,3.22
2022-11-01T09:45:40.431Z,2.92
2022-11-01T09:48:13.150Z,3.17
2022-11-01T09:50:43.860Z,3.88
2022-11-01T09:53:18.691Z,3.00
2022-11-01T09:55:52.218Z,3.90
2022-11-01T10:01:11.583Z,3.30
2022-11-01T10:03:52.969Z,3.35
2022-11-01T10:06:25.012Z,3.20
2022-11-01T10:09:05.855Z,2.92
2022-11-01T10:11:46.146Z,3.92
2022-11-01T10:14:29.117Z,2.83
2022-11-01T10:17:07.770Z,3.17
2022-11-01T10:19:38.399Z,3.03
2022-11-01T10:22:13.162Z,4.28
2022-11-01T10:24:45.311Z,3.65
2022-11-01T10:27:19.752Z,3.38
2022-11-01T10:29:55.908Z,3.45
2022-11-01T10:32:30.857Z,3.13
2022-11-01T10:35:05.263Z,3.42
2022-11-01T10:37:43.736Z,4.90
2022-11-01T10:40:24.712Z,4.65
2022-11-01T10:42:52.671Z,2.60
2022-11-01T10:45:23.162Z,3.08
2022-11-01T10:47:55.955Z,3.70
2022-11-01T10:50:27.419Z,3.90
2022-11-01T10:53:00.861Z,3.63
2022-11-01T10:55:35.574Z,3.00
2022-11-01T10:58:07.457Z,3.22
2022-11-01T11:00:38.253Z,3.38
2022-11-01T11:03:22.322Z,4.72
2022-11-01T11:05:53.162Z,4.10
2022-11-01T11:08:24.752Z,3.58
2022-11-01T11:10:53.028Z,2.88
2022-11-01T11:13:23.711Z,2.88
2022-11-01T11:15:53.679Z,2.97
2022-11-01T11:18:26.213Z,3.15
2022-11-01T11:21:00.070Z,2.95
2022-11-01T11:23:29.612Z,3.30
2022-11-01T11:26:02.908Z,3.92
2022-11-01T11:28:33.594Z,3.10
2022-11-01T11:31:13.767Z,2.83
2022-11-01T11:33:50.179Z,3.72
2022-11-01T11:36:27.472Z,3.08
2022-11-01T11:38:56.349Z,2.90
2022-11-01T11:41:30.205Z,3.72
2022-11-01T11:43:58.342Z,3.53
2022-11-01T11:46:26.211Z,3.10
2022-11-01T11:48:56.950Z,2.95
2022-11-01T11:51:28.850Z,3.08
2022-11-01T11:54:26.360Z,2.83
2022-11-01T11:57:11.139Z,3.75
2022-11-01T11:59:40.785Z,2.63
2022-11-01T12:02:19.877Z,3.40
2022-11-01T12:04:52.751Z,2.55
2022-11-01T12:07:30.592Z,3.50
2022-11-01T12:10:02.146Z,2.88
2022-11-01T12:12:32.476Z,3.13
2022-11-01T12:15:02.041Z,3.30
2022-11-01T12:17:33.733Z,2.67
2022-11-01T12:20:16.818Z,3.05
2022-11-01T12:22:50.212Z,2.88
2022-11-01T12:25:22.683Z,3.45
2022-11-01T12:27:58.747Z,2.92
2022-11-01T12:30:29.484Z,2.65
2022-11-01T12:32:59.730Z,2.95
2022-11-01T12:35:31.911Z,2.85
2022-11-01T12:38:13.660Z,3.15
2022-11-01T12:40:44.678Z,2.97
2022-11-01T12:43:17.499Z,3.00
2022-11-01T12:45:51.293Z,2.72
2022-11-01T12:48:25.878Z,2.58
2022-11-01T12:50:59.390Z,2.88
2022-11-01T12:53:34.343Z,2.90
2022-11-01T12:56:02.336Z,2.95
2022-11-01T12:58:33.796Z,2.92
2022-11-01T13:01:27.030Z,2.42
2022-11-01T13:04:08.882Z,2.72
2022-11-01T13:06:56.155Z,3.15
2022-11-01T13:09:32.095Z,3.20
2022-11-01T13:12:05.990Z,2.53
2022-11-01T13:14:45.757Z,3.08
2022-11-01T13:17:22.076Z,1.90
2022-11-01T13:20:00.424Z,2.72
2022-11-01T13:22:36.415Z,3.10
2022-11-01T13:25:14.063Z,2.53
2022-11-01T13:27:47.958Z,2.75
2022-11-01T13:30:19.622Z,2.95
2022-11-01T13:32:54.057Z,3.13
2022-11-01T13:35:45.808Z,2.50
2022-11-01T13:38:25.781Z,2.53
2022-11-01T13:41:06.104Z,2.85
2022-11-01T13:43:39.147Z,2.28
2022-11-01T13:46:43.741Z,2.10
2022-11-01T13:49:54.293Z,2.00
2022-11-01T13:52:28.789Z,2.60
2022-11-01T13:55:02.567Z,2.42
2022-11-01T13:57:32.777Z,1.88
2022-11-01T14:00:02.151Z,2.30
2022-11-01T14:02:58.011Z,2.50
2022-11-01T14:05:38.434Z,2.58
2022-11-01T14:08:28.858Z,1.83
2022-11-01T14:10:57.352Z,2.33
2022-11-01T14:13:35.966Z,1.85
2022-11-01T14:16:20.550Z,2.28
2022-11-01T14:19:20.454Z,2.00
2022-11-01T14:21:53.415Z,2.05
2022-11-01T14:24:32.163Z,1.88
2022-11-01T14:27:13.783Z,2.08
2022-11-01T14:29:43.148Z,2.90
2022-11-01T14:32:12.375Z,2.00
2022-11-01T14:34:42.698Z,2.70
2022-11-01T14:37:20.277Z,2.33
2022-11-01T14:39:57.228Z,1.73
2022-11-01T14:42:31.287Z,1.70
2022-11-01T14:45:03.691Z,1.42
2022-11-01T14:47:39.689Z,1.95
2022-11-01T14:50:17.104Z,2.03
2022-11-01T14:52:50.238Z,2.40
2022-11-01T14:55:23.357Z,2.08
2022-11-01T14:57:51.859Z,2.00
2022-11-01T15:00:28.497Z,1.92
2022-11-01T15:05:28.562Z,2.20
2022-11-01T15:07:59.229Z,1.35
2022-11-01T15:10:27.758Z,1.80
2022-11-01T15:12:59.276Z,2.25
2022-11-01T15:15:32.409Z,1.77
2022-11-01T15:18:04.827Z,1.75
2022-11-01T15:20:37.749Z,1.95
2022-11-01T15:23:11.042Z,1.77
2022-11-01T15:25:40.716Z,1.42
2022-11-01T15:28:08.850Z,2.10
2022-11-01T15:30:38.324Z,2.13
2022-11-01T15:33:17.658Z,1.65
2022-11-01T15:35:55.276Z,2.40
2022-11-01T15:38:24.124Z,1.60
2022-11-01T15:40:53.127Z,2.40
2022-11-01T15:43:22.907Z,1.67
2022-11-01T15:45:56.138Z,2.97
2022-11-01T15:48:28.307Z,1.75
2022-11-01T15:51:00.696Z,2.15
2022-11-01T15:53:33.459Z,1.75
2022-11-01T15:56:06.417Z,1.85
2022-11-01T15:58:39.139Z,2.22
2022-11-01T16:01:15.781Z,1.88
2022-11-01T16:03:48.523Z,1.80
2022-11-01T16:06:21.731Z,1.93
2022-11-01T16:08:55.747Z,1.52
2022-11-01T16:11:26.373Z,1.88
2022-11-01T16:14:00.531Z,2.03
2022-11-01T16:16:29.896Z,1.92
2022-11-01T16:18:57.767Z,2.15
2022-11-01T16:21:29.997Z,2.17
2022-11-01T16:24:05.308Z,2.05
2022-11-01T16:26:53.118Z,1.52
2022-11-01T16:29:38.852Z,1.77
2022-11-01T16:32:10.316Z,1.88
2022-11-01T16:34:38.612Z,2.10
2022-11-01T16:37:19.477Z,1.60
2022-11-01T16:39:48.143Z,3.20
2022-11-01T16:42:17.282Z,1.98
2022-11-01T16:44:46.115Z,2.25
2022-11-01T16:47:17.340Z,1.73
2022-11-01T16:49:50.432Z,2.25
2022-11-01T16:52:18.539Z,2.78
2022-11-01T16:54:49.493Z,1.80
2022-11-01T16:57:23.346Z,1.92
2022-11-01T16:59:52.327Z,1.98
2022-11-01T17:02:24.473Z,1.80
2022-11-01T17:04:56.411Z,1.95
2022-11-01T17:07:24.356Z,1.80
2022-11-01T17:09:52.264Z,2.20
2022-11-01T17:12:21.760Z,1.98
2022-11-01T17:14:50.973Z,1.98
2022-11-01T17:17:24.588Z,1.65
2022-11-01T17:19:59.716Z,2.20
2022-11-01T17:22:36.929Z,2.67
2022-11-01T17:27:59.881Z,2.38
2022-11-01T17:30:28.402Z,2.15
2022-11-01T17:32:56.709Z,2.88
2022-11-01T17:35:26.876Z,1.83
2022-11-01T17:37:55.887Z,2.70
2022-11-01T17:40:25.831Z,2.20
2022-11-01T17:42:54.449Z,2.88
2022-11-01T17:45:23.503Z,1.88
2022-11-01T17:47:56.107Z,2.42
2022-11-01T17:50:24.488Z,1.35
2022-11-01T17:52:54.449Z,2.00
2022-11-01T17:55:22.518Z,1.45
2022-11-01T17:57:50.632Z,2.83
2022-11-01T18:00:20.181Z,2.45
2022-11-01T18:02:48.984Z,1.95
2022-11-01T18:05:17.064Z,1.70
2022-11-01T18:07:48.650Z,1.88
2022-11-01T18:10:19.884Z,2.15
2022-11-01T18:13:15.898Z,2.05
2022-11-01T18:15:53.287Z,2.00
2022-11-01T18:18:30.296Z,2.13
2022-11-01T18:21:16.975Z,2.17
2022-11-01T18:23:46.972Z,1.90
2022-11-01T18:26:21.092Z,2.05
2022-11-01T18:28:48.992Z,1.50
2022-11-01T18:31:23.603Z,1.73
2022-11-01T18:33:59.538Z,2.08
2022-11-01T18:36:32.154Z,1.65
2022-11-01T18:39:07.233Z,2.25
2022-11-01T18:41:36.724Z,1.70
2022-11-01T18:44:11.936Z,1.95
2022-11-01T18:46:48.880Z,2.13
2022-11-01T18:49:16.816Z,1.98
2022-11-01T18:51:46.477Z,2.05
2022-11-01T18:54:29.208Z,1.70
2022-11-01T18:57:00.516Z,2.47
2022-11-01T18:59:34.679Z,2.50
2022-11-01T19:02:12.256Z,2.13
2022-11-01T19:04:44.485Z,2.03
2022-11-01T19:07:14.547Z,1.70
2022-11-01T19:09:44.665Z,1.60
2022-11-01T19:12:16.663Z,1.70
2022-11-01T19:14:47.614Z,2.10
2022-11-01T19:17:21.076Z,1.85
2022-11-01T19:19:50.533Z,2.20
2022-11-01T19:22:32.459Z,1.80
2022-11-01T19:25:01.478Z,1.73
2022-11-01T19:27:31.424Z,2.17
2022-11-01T19:30:00.465Z,1.40
2022-11-01T19:32:28.740Z,2.08
2022-11-01T19:34:57.031Z,2.08
2022-11-01T19:37:31.597Z,2.30
2022-11-01T19:40:02.890Z,2.38
2022-11-01T19:42:33.171Z,1.65
2022-11-01T19:45:11.677Z,1.80
2022-11-01T19:47:41.439Z,1.90
2022-11-01T19:50:21.351Z,2.40
2022-11-01T19:52:51.959Z,2.10
2022-11-01T19:55:37.734Z,2.38
2022-11-01T19:58:25.951Z,2.13
2022-11-01T20:01:13.596Z,2.20
2022-11-01T20:03:44.231Z,1.90
2022-11-01T20:06:17.496Z,2.40
2022-11-01T20:08:46.246Z,2.45
2022-11-01T20:11:14.212Z,2.58
2022-11-01T20:13:43.582Z,2.10
2022-11-01T20:16:11.492Z,2.28
2022-11-01T20:18:39.369Z,2.42
2022-11-01T20:21:07.267Z,2.22
2022-11-01T20:23:35.920Z,2.65
2022-11-01T20:26:04.849Z,2.08
2022-11-01T20:28:33.460Z,2.45
2022-11-01T20:31:04.575Z,1.95
2022-11-01T20:33:32.917Z,2.13
2022-11-01T20:36:00.990Z,2.13
2022-11-01T20:38:28.888Z,2.42
2022-11-01T20:40:56.983Z,1.55
2022-11-01T20:43:25.099Z,2.25
2022-11-01T20:45:53.148Z,1.83
2022-11-01T20:48:22.354Z,1.83
2022-11-01T20:50:50.290Z,1.90
2022-11-01T20:53:18.560Z,2.28
2022-11-01T20:55:46.603Z,1.80
2022-11-01T20:58:15.183Z,2.55
2022-11-01T21:00:43.104Z,2.05
2022-11-01T21:03:16.166Z,2.55
2022-11-01T21:05:47.076Z,1.73
2022-11-01T21:08:24.528Z,1.88
2022-11-01T21:10:55.697Z,1.58
2022-11-01T21:13:26.369Z,1.48
2022-11-01T21:15:56.033Z,1.90
2022-11-01T21:18:39.889Z,1.95
2022-11-01T21:24:16.424Z,1.90
2022-11-01T21:26:45.492Z,2.10
2022-11-01T21:29:20.688Z,2.25
2022-11-01T21:31:48.598Z,2.33
2022-11-01T21:34:25.835Z,2.13
2022-11-01T21:36:53.947Z,2.72
2022-11-01T21:39:26.882Z,2.42
2022-11-01T21:41:57.769Z,2.50
2022-11-01T21:44:29.366Z,2.13
2022-11-01T21:46:59.526Z,2.10
2022-11-01T21:49:30.315Z,2.15
2022-11-01T21:52:00.517Z,2.42
2022-11-01T21:54:31.359Z,2.00
2022-11-01T21:56:59.362Z,2.03
2022-11-01T21:59:28.696Z,3.05
2022-11-01T22:01:57.979Z,1.95
2022-11-01T22:04:28.682Z,2.42
2022-11-01T22:06:56.939Z,2.45
2022-11-01T22:09:25.339Z,2.60
2022-11-01T22:11:54.954Z,1.92
2022-11-01T22:14:22.824Z,2.20
2022-11-01T22:16:50.724Z,1.92
2022-11-01T22:19:18.881Z,2.50
2022-11-01T22:21:47.087Z,2.60
2022-11-01T22:24:15.162Z,2.33
2022-11-01T22:26:43.216Z,2.10
2022-11-01T22:29:12.425Z,2.75
2022-11-01T22:31:40.314Z,2.10
2022-11-01T22:34:08.133Z,2.75
2022-11-01T22:36:37.428Z,2.45
2022-11-01T22:39:15.334Z,2.20
2022-11-01T22:41:43.429Z,2.03
2022-11-01T22:44:14.759Z,2.28
2022-11-01T22:46:52.331Z,1.98
2022-11-01T22:49:27.365Z,1.83
2022-11-01T22:51:58.659Z,2.88
2022-11-01T22:54:39.914Z,1.80
2022-11-01T22:57:15.963Z,1.92
2022-11-01T22:59:47.387Z,1.48
2022-11-01T23:02:26.860Z,2.88
2022-11-01T23:05:20.563Z,2.38
2022-11-01T23:07:50.313Z,3.78
2022-11-01T23:10:24.980Z,1.73
2022-11-01T23:13:16.495Z,2.28
2022-11-01T23:15:45.999Z,2.05
2022-11-01T23:18:19.093Z,2.00
2022-11-01T23:20:54.028Z,2.60
2022-11-01T23:23:22.378Z,2.10
2022-11-01T23:25:50.723Z,1.48
2022-11-01T23:28:19.106Z,2.05
2022-11-01T23:30:49.511Z,2.35
2022-11-01T23:33:20.210Z,2.15
2022-11-01T23:35:52.028Z,2.10
2022-11-01T23:38:22.765Z,2.38
2022-11-01T23:40:52.848Z,2.35
2022-11-01T23:43:27.911Z,2.25
2022-11-01T23:45:57.418Z,2.03
2022-11-01T23:48:25.522Z,2.63
2022-11-01T23:50:54.199Z,3.30
2022-11-01T23:53:28.115Z,2.33
2022-11-01T23:55:56.109Z,2.15
